sensor_id;sensor_type;location;lat;lon;timestamp;temperature;humidity
17639;DHT22;8938;53.546;9.954;2023-09-19T00:01:32;20.70;99.90
17639;DHT22;8938;53.546;9.954;2023-09-19T00:03:59;20.70;99.90
17639;DHT22;8938;53.546;9.954;2023-09-19T00:06:29;20.80;99.90
17639;DHT22;8938;53.546;9.954;2023-09-19T00:08:57;20.90;99.90
17639;DHT22;8938;53.546;9.954;2023-09-19T00:11:24;20.90;99.90
17639;DHT22;8938;53.546;9.954;2023-09-19T00:13:51;20.80;99.90
17639;DHT22;8938;53.546;9.954;2023-09-19T00:16:17;20.90;99.90
17639;DHT22;8938;53.546;9.954;2023-09-19T00:18:45;20.70;99.90
17639;DHT22;8938;53.546;9.954;2023-09-19T00:21:11;20.80;99.90
17639;DHT22;8938;53.546;9.954;2023-09-19T00:23:36;20.80;99.90
17639;DHT22;8938;53.546;9.954;2023-09-19T00:26:02;20.90;99.90
17639;DHT22;8938;53.546;9.954;2023-09-19T00:28:29;20.80;99.90
17639;DHT22;8938;53.546;9.954;2023-09-19T00:30:55;20.90;99.90
17639;DHT22;8938;53.546;9.954;2023-09-19T00:33:21;20.90;99.90
17639;DHT22;8938;53.546;9.954;2023-09-19T00:35:54;20.90;99.90
17639;DHT22;8938;53.546;9.954;2023-09-19T00:38:21;20.90;99.90
17639;DHT22;8938;53.546;9.954;2023-09-19T00:40:50;20.90;99.90
17639;DHT22;8938;53.546;9.954;2023-09-19T00:43:16;21.00;99.90
17639;DHT22;8938;53.546;9.954;2023-09-19T00:45:45;20.90;99.90
17639;DHT22;8938;53.546;9.954;2023-09-19T00:48:11;20.90;99.90
17639;DHT22;8938;53.546;9.954;2023-09-19T00:50:38;21.00;99.90
17639;DHT22;8938;53.546;9.954;2023-09-19T00:53:08;21.00;99.90
17639;DHT22;8938;53.546;9.954;2023-09-19T00:55:38;21.10;99.90
17639;DHT22;8938;53.546;9.954;2023-09-19T00:58:04;21.00;99.90
17639;DHT22;8938;53.546;9.954;2023-09-19T01:00:32;21.00;99.90
17639;DHT22;8938;53.546;9.954;2023-09-19T01:02:59;20.90;99.90
17639;DHT22;8938;53.546;9.954;2023-09-19T01:05:26;20.90;99.90
17639;DHT22;8938;53.546;9.954;2023-09-19T01:07:52;20.80;99.90
17639;DHT22;8938;53.546;9.954;2023-09-19T01:10:19;20.80;99.90
17639;DHT22;8938;53.546;9.954;2023-09-19T01:16:07;20.90;99.90
17639;DHT22;8938;53.546;9.954;2023-09-19T01:18:59;20.80;99.90
17639;DHT22;8938;53.546;9.954;2023-09-19T01:21:46;20.70;99.90
17639;DHT22;8938;53.546;9.954;2023-09-19T01:27:23;20.70;99.90
17639;DHT22;8938;53.546;9.954;2023-09-19T01:29:51;20.70;99.90
17639;DHT22;8938;53.546;9.954;2023-09-19T01:32:21;20.80;99.90
17639;DHT22;8938;53.546;9.954;2023-09-19T01:34:51;20.80;99.90
17639;DHT22;8938;53.546;9.954;2023-09-19T01:37:19;20.80;99.90
17639;DHT22;8938;53.546;9.954;2023-09-19T01:39:51;20.90;99.90
17639;DHT22;8938;53.546;9.954;2023-09-19T01:45:03;20.90;99.90
17639;DHT22;8938;53.546;9.954;2023-09-19T01:47:41;20.80;99.90
17639;DHT22;8938;53.546;9.954;2023-09-19T01:52:47;20.70;99.90
17639;DHT22;8938;53.546;9.954;2023-09-19T01:55:15;20.70;99.90
17639;DHT22;8938;53.546;9.954;2023-09-19T01:58:04;20.70;99.90
17639;DHT22;8938;53.546;9.954;2023-09-19T02:00:34;20.60;99.90
17639;DHT22;8938;53.546;9.954;2023-09-19T02:03:02;20.70;99.90
17639;DHT22;8938;53.546;9.954;2023-09-19T02:05:28;20.60;99.90
17639;DHT22;8938;53.546;9.954;2023-09-19T02:07:54;20.60;99.90
17639;DHT22;8938;53.546;9.954;2023-09-19T02:10:21;20.50;99.90
17639;DHT22;8938;53.546;9.954;2023-09-19T02:12:47;20.40;99.90
17639;DHT22;8938;53.546;9.954;2023-09-19T02:15:13;20.40;99.90
17639;DHT22;8938;53.546;9.954;2023-09-19T02:17:44;20.30;99.90
17639;DHT22;8938;53.546;9.954;2023-09-19T02:20:11;20.40;99.90
17639;DHT22;8938;53.546;9.954;2023-09-19T02:22:41;20.40;99.90
17639;DHT22;8938;53.546;9.954;2023-09-19T02:25:07;20.50;99.90
17639;DHT22;8938;53.546;9.954;2023-09-19T02:27:33;20.40;99.90
17639;DHT22;8938;53.546;9.954;2023-09-19T02:29:58;20.30;99.90
17639;DHT22;8938;53.546;9.954;2023-09-19T02:32:24;20.20;99.90
17639;DHT22;8938;53.546;9.954;2023-09-19T02:34:50;20.30;99.90
17639;DHT22;8938;53.546;9.954;2023-09-19T02:37:17;20.20;99.90
17639;DHT22;8938;53.546;9.954;2023-09-19T02:39:44;20.20;99.90
17639;DHT22;8938;53.546;9.954;2023-09-19T02:42:09;20.30;99.90
17639;DHT22;8938;53.546;9.954;2023-09-19T02:44:35;20.30;99.90
17639;DHT22;8938;53.546;9.954;2023-09-19T02:47:01;20.20;99.90
17639;DHT22;8938;53.546;9.954;2023-09-19T02:49:26;20.30;99.90
17639;DHT22;8938;53.546;9.954;2023-09-19T02:51:52;20.20;99.90
17639;DHT22;8938;53.546;9.954;2023-09-19T02:54:17;20.20;99.90
17639;DHT22;8938;53.546;9.954;2023-09-19T02:56:44;20.10;99.90
17639;DHT22;8938;53.546;9.954;2023-09-19T02:59:10;20.10;99.90
17639;DHT22;8938;53.546;9.954;2023-09-19T03:01:36;20.20;99.90
17639;DHT22;8938;53.546;9.954;2023-09-19T03:04:04;20.20;99.90
17639;DHT22;8938;53.546;9.954;2023-09-19T03:06:32;20.20;99.90
17639;DHT22;8938;53.546;9.954;2023-09-19T03:08:58;20.20;99.90
17639;DHT22;8938;53.546;9.954;2023-09-19T03:11:25;20.20;99.90
17639;DHT22;8938;53.546;9.954;2023-09-19T03:13:54;20.10;99.90
17639;DHT22;8938;53.546;9.954;2023-09-19T03:16:20;20.10;99.90
17639;DHT22;8938;53.546;9.954;2023-09-19T03:18:50;20.20;99.90
17639;DHT22;8938;53.546;9.954;2023-09-19T03:21:16;20.30;99.90
17639;DHT22;8938;53.546;9.954;2023-09-19T03:23:43;20.30;99.90
17639;DHT22;8938;53.546;9.954;2023-09-19T03:26:11;20.20;99.90
17639;DHT22;8938;53.546;9.954;2023-09-19T03:28:38;20.10;99.90
17639;DHT22;8938;53.546;9.954;2023-09-19T03:31:05;20.10;99.90
17639;DHT22;8938;53.546;9.954;2023-09-19T03:33:31;20.10;99.90
17639;DHT22;8938;53.546;9.954;2023-09-19T03:35:58;20.10;99.90
17639;DHT22;8938;53.546;9.954;2023-09-19T03:38:25;20.20;99.90
17639;DHT22;8938;53.546;9.954;2023-09-19T03:40:50;20.20;99.90
17639;DHT22;8938;53.546;9.954;2023-09-19T03:43:16;20.10;99.90
17639;DHT22;8938;53.546;9.954;2023-09-19T03:45:41;20.10;99.90
17639;DHT22;8938;53.546;9.954;2023-09-19T03:48:11;20.10;99.90
17639;DHT22;8938;53.546;9.954;2023-09-19T03:50:37;20.00;99.90
17639;DHT22;8938;53.546;9.954;2023-09-19T03:53:03;19.90;99.90
17639;DHT22;8938;53.546;9.954;2023-09-19T03:55:29;19.70;99.90
17639;DHT22;8938;53.546;9.954;2023-09-19T03:57:57;19.70;99.90
17639;DHT22;8938;53.546;9.954;2023-09-19T04:00:23;19.70;99.90
17639;DHT22;8938;53.546;9.954;2023-09-19T04:02:52;19.80;99.90
17639;DHT22;8938;53.546;9.954;2023-09-19T04:05:18;19.70;99.90
17639;DHT22;8938;53.546;9.954;2023-09-19T04:07:44;19.60;99.90
17639;DHT22;8938;53.546;9.954;2023-09-19T04:10:10;19.50;99.90
17639;DHT22;8938;53.546;9.954;2023-09-19T04:12:37;19.40;99.90
17639;DHT22;8938;53.546;9.954;2023-09-19T04:15:06;19.30;99.90
17639;DHT22;8938;53.546;9.954;2023-09-19T04:17:32;19.40;99.90
17639;DHT22;8938;53.546;9.954;2023-09-19T04:20:01;19.30;99.90
17639;DHT22;8938;53.546;9.954;2023-09-19T04:22:26;19.20;99.90
17639;DHT22;8938;53.546;9.954;2023-09-19T04:24:52;19.20;99.90
17639;DHT22;8938;53.546;9.954;2023-09-19T04:27:17;19.10;99.90
17639;DHT22;8938;53.546;9.954;2023-09-19T04:29:44;19.10;99.90
17639;DHT22;8938;53.546;9.954;2023-09-19T04:32:09;19.10;99.90
17639;DHT22;8938;53.546;9.954;2023-09-19T04:34:35;19.00;99.90
17639;DHT22;8938;53.546;9.954;2023-09-19T04:37:01;18.90;99.90
17639;DHT22;8938;53.546;9.954;2023-09-19T04:39:28;18.90;99.90
17639;DHT22;8938;53.546;9.954;2023-09-19T04:41:54;18.90;99.90
17639;DHT22;8938;53.546;9.954;2023-09-19T04:44:20;19.00;99.90
17639;DHT22;8938;53.546;9.954;2023-09-19T04:46:46;19.00;99.90
17639;DHT22;8938;53.546;9.954;2023-09-19T04:49:12;18.90;99.90
17639;DHT22;8938;53.546;9.954;2023-09-19T04:51:38;18.80;99.90
17639;DHT22;8938;53.546;9.954;2023-09-19T04:54:05;18.70;99.90
17639;DHT22;8938;53.546;9.954;2023-09-19T04:56:30;18.80;99.90
17639;DHT22;8938;53.546;9.954;2023-09-19T04:58:57;18.70;99.90
17639;DHT22;8938;53.546;9.954;2023-09-19T05:01:24;18.70;99.90
17639;DHT22;8938;53.546;9.954;2023-09-19T05:03:50;18.80;99.90
17639;DHT22;8938;53.546;9.954;2023-09-19T05:06:22;18.80;99.90
17639;DHT22;8938;53.546;9.954;2023-09-19T05:08:48;18.70;99.90
17639;DHT22;8938;53.546;9.954;2023-09-19T05:11:18;18.70;99.90
17639;DHT22;8938;53.546;9.954;2023-09-19T05:13:44;18.70;99.90
17639;DHT22;8938;53.546;9.954;2023-09-19T05:16:10;18.70;99.90
17639;DHT22;8938;53.546;9.954;2023-09-19T05:18:36;18.80;99.90
17639;DHT22;8938;53.546;9.954;2023-09-19T05:21:04;18.80;99.90
17639;DHT22;8938;53.546;9.954;2023-09-19T05:23:30;18.80;99.90
17639;DHT22;8938;53.546;9.954;2023-09-19T05:25:56;18.80;99.90
17639;DHT22;8938;53.546;9.954;2023-09-19T05:28:23;18.80;99.90
17639;DHT22;8938;53.546;9.954;2023-09-19T05:30:49;18.70;99.90
17639;DHT22;8938;53.546;9.954;2023-09-19T05:33:15;18.80;99.90
17639;DHT22;8938;53.546;9.954;2023-09-19T05:35:41;18.80;99.90
17639;DHT22;8938;53.546;9.954;2023-09-19T05:38:07;18.80;99.90
17639;DHT22;8938;53.546;9.954;2023-09-19T05:40:39;18.80;99.90
17639;DHT22;8938;53.546;9.954;2023-09-19T05:43:08;18.80;99.90
17639;DHT22;8938;53.546;9.954;2023-09-19T05:45:34;18.80;99.90
17639;DHT22;8938;53.546;9.954;2023-09-19T05:48:08;18.80;99.90
17639;DHT22;8938;53.546;9.954;2023-09-19T05:50:34;18.90;99.90
17639;DHT22;8938;53.546;9.954;2023-09-19T05:52:59;18.90;99.90
17639;DHT22;8938;53.546;9.954;2023-09-19T05:55:25;18.90;99.90
17639;DHT22;8938;53.546;9.954;2023-09-19T05:57:52;18.90;99.90
17639;DHT22;8938;53.546;9.954;2023-09-19T06:00:19;18.80;99.90
17639;DHT22;8938;53.546;9.954;2023-09-19T06:02:50;18.90;99.90
17639;DHT22;8938;53.546;9.954;2023-09-19T06:05:15;18.90;99.90
17639;DHT22;8938;53.546;9.954;2023-09-19T06:07:41;18.90;99.90
17639;DHT22;8938;53.546;9.954;2023-09-19T06:10:07;18.90;99.90
17639;DHT22;8938;53.546;9.954;2023-09-19T06:12:37;18.90;99.90
17639;DHT22;8938;53.546;9.954;2023-09-19T06:15:04;18.90;99.90
17639;DHT22;8938;53.546;9.954;2023-09-19T06:17:34;19.00;99.90
17639;DHT22;8938;53.546;9.954;2023-09-19T06:20:05;19.10;99.90
17639;DHT22;8938;53.546;9.954;2023-09-19T06:22:35;19.20;99.90
17639;DHT22;8938;53.546;9.954;2023-09-19T06:25:01;19.20;99.90
17639;DHT22;8938;53.546;9.954;2023-09-19T06:27:27;19.20;99.90
17639;DHT22;8938;53.546;9.954;2023-09-19T06:29:53;19.20;99.90
17639;DHT22;8938;53.546;9.954;2023-09-19T06:32:18;19.10;99.90
17639;DHT22;8938;53.546;9.954;2023-09-19T06:34:44;19.10;99.90
17639;DHT22;8938;53.546;9.954;2023-09-19T06:37:11;19.20;99.90
17639;DHT22;8938;53.546;9.954;2023-09-19T06:39:37;19.20;99.90
17639;DHT22;8938;53.546;9.954;2023-09-19T06:42:03;19.20;99.90
17639;DHT22;8938;53.546;9.954;2023-09-19T06:44:29;19.30;99.90
17639;DHT22;8938;53.546;9.954;2023-09-19T06:46:56;19.50;99.90
17639;DHT22;8938;53.546;9.954;2023-09-19T06:49:21;19.40;99.90
17639;DHT22;8938;53.546;9.954;2023-09-19T06:51:47;19.40;99.90
17639;DHT22;8938;53.546;9.954;2023-09-19T06:54:12;19.40;99.90
17639;DHT22;8938;53.546;9.954;2023-09-19T06:56:38;19.30;99.90
17639;DHT22;8938;53.546;9.954;2023-09-19T06:59:04;19.40;99.90
17639;DHT22;8938;53.546;9.954;2023-09-19T07:01:31;19.40;99.90
17639;DHT22;8938;53.546;9.954;2023-09-19T07:03:57;19.40;99.90
17639;DHT22;8938;53.546;9.954;2023-09-19T07:06:23;19.50;99.90
17639;DHT22;8938;53.546;9.954;2023-09-19T07:08:49;19.40;99.90
17639;DHT22;8938;53.546;9.954;2023-09-19T07:11:15;19.50;99.90
17639;DHT22;8938;53.546;9.954;2023-09-19T07:13:41;19.50;99.90
17639;DHT22;8938;53.546;9.954;2023-09-19T07:16:06;19.60;99.90
17639;DHT22;8938;53.546;9.954;2023-09-19T07:18:34;19.80;99.90
17639;DHT22;8938;53.546;9.954;2023-09-19T07:20:59;19.90;99.90
17639;DHT22;8938;53.546;9.954;2023-09-19T07:23:30;20.00;99.90
17639;DHT22;8938;53.546;9.954;2023-09-19T07:26:01;19.90;99.90
17639;DHT22;8938;53.546;9.954;2023-09-19T07:28:26;19.90;99.90
17639;DHT22;8938;53.546;9.954;2023-09-19T07:30:53;19.90;99.90
17639;DHT22;8938;53.546;9.954;2023-09-19T07:33:19;19.80;99.90
17639;DHT22;8938;53.546;9.954;2023-09-19T07:35:46;19.80;99.90
17639;DHT22;8938;53.546;9.954;2023-09-19T07:38:12;19.80;99.90
17639;DHT22;8938;53.546;9.954;2023-09-19T07:40:37;19.70;99.90
17639;DHT22;8938;53.546;9.954;2023-09-19T07:43:03;19.70;99.90
17639;DHT22;8938;53.546;9.954;2023-09-19T07:45:33;19.70;99.90
17639;DHT22;8938;53.546;9.954;2023-09-19T07:47:59;19.60;99.90
17639;DHT22;8938;53.546;9.954;2023-09-19T07:50:29;19.70;99.90
17639;DHT22;8938;53.546;9.954;2023-09-19T07:52:55;19.70;99.90
17639;DHT22;8938;53.546;9.954;2023-09-19T07:55:22;19.60;99.90
17639;DHT22;8938;53.546;9.954;2023-09-19T07:57:52;19.60;99.90
17639;DHT22;8938;53.546;9.954;2023-09-19T08:00:17;19.50;99.90
17639;DHT22;8938;53.546;9.954;2023-09-19T08:02:43;19.40;99.90
17639;DHT22;8938;53.546;9.954;2023-09-19T08:05:10;19.40;99.90
17639;DHT22;8938;53.546;9.954;2023-09-19T08:07:37;19.50;99.90
17639;DHT22;8938;53.546;9.954;2023-09-19T08:10:07;19.50;99.90
17639;DHT22;8938;53.546;9.954;2023-09-19T08:12:41;19.40;99.90
17639;DHT22;8938;53.546;9.954;2023-09-19T08:15:18;19.40;99.90
17639;DHT22;8938;53.546;9.954;2023-09-19T08:17:47;19.40;99.90
17639;DHT22;8938;53.546;9.954;2023-09-19T08:20:13;19.50;99.90
17639;DHT22;8938;53.546;9.954;2023-09-19T08:22:44;19.70;99.90
17639;DHT22;8938;53.546;9.954;2023-09-19T08:25:11;19.70;99.90
17639;DHT22;8938;53.546;9.954;2023-09-19T08:27:37;19.70;99.90
17639;DHT22;8938;53.546;9.954;2023-09-19T08:30:02;19.80;99.90
17639;DHT22;8938;53.546;9.954;2023-09-19T08:32:29;19.80;99.90
17639;DHT22;8938;53.546;9.954;2023-09-19T08:34:54;19.80;99.90
17639;DHT22;8938;53.546;9.954;2023-09-19T08:37:20;19.90;99.90
17639;DHT22;8938;53.546;9.954;2023-09-19T08:39:45;19.80;99.90
17639;DHT22;8938;53.546;9.954;2023-09-19T08:42:11;19.80;99.90
17639;DHT22;8938;53.546;9.954;2023-09-19T08:44:38;19.90;99.90
17639;DHT22;8938;53.546;9.954;2023-09-19T08:47:15;20.00;99.90
17639;DHT22;8938;53.546;9.954;2023-09-19T08:50:10;20.00;99.90
17639;DHT22;8938;53.546;9.954;2023-09-19T08:52:43;20.10;99.90
17639;DHT22;8938;53.546;9.954;2023-09-19T08:55:12;20.20;99.90
17639;DHT22;8938;53.546;9.954;2023-09-19T08:57:39;20.20;99.90
17639;DHT22;8938;53.546;9.954;2023-09-19T09:00:08;20.20;99.90
17639;DHT22;8938;53.546;9.954;2023-09-19T09:02:38;20.30;99.90
17639;DHT22;8938;53.546;9.954;2023-09-19T09:05:09;20.30;99.90
17639;DHT22;8938;53.546;9.954;2023-09-19T09:07:37;20.30;99.90
17639;DHT22;8938;53.546;9.954;2023-09-19T09:10:03;20.30;99.90
17639;DHT22;8938;53.546;9.954;2023-09-19T09:12:29;20.30;99.90
17639;DHT22;8938;53.546;9.954;2023-09-19T09:14:55;20.40;99.90
17639;DHT22;8938;53.546;9.954;2023-09-19T09:17:25;20.50;99.90
17639;DHT22;8938;53.546;9.954;2023-09-19T09:19:53;20.50;99.90
17639;DHT22;8938;53.546;9.954;2023-09-19T09:22:19;20.60;99.90
17639;DHT22;8938;53.546;9.954;2023-09-19T09:24:57;20.50;99.90
17639;DHT22;8938;53.546;9.954;2023-09-19T09:27:30;20.50;99.90
17639;DHT22;8938;53.546;9.954;2023-09-19T09:29:57;20.60;99.90
17639;DHT22;8938;53.546;9.954;2023-09-19T09:32:23;20.80;99.90
17639;DHT22;8938;53.546;9.954;2023-09-19T09:34:51;20.80;99.90
17639;DHT22;8938;53.546;9.954;2023-09-19T09:37:17;21.00;99.90
17639;DHT22;8938;53.546;9.954;2023-09-19T09:39:56;21.30;99.90
17639;DHT22;8938;53.546;9.954;2023-09-19T09:42:35;21.60;99.90
17639;DHT22;8938;53.546;9.954;2023-09-19T09:47:51;21.70;99.80
17639;DHT22;8938;53.546;9.954;2023-09-19T09:52:56;21.60;99.90
17639;DHT22;8938;53.546;9.954;2023-09-19T09:56:01;21.80;99.90
17639;DHT22;8938;53.546;9.954;2023-09-19T09:58:30;21.90;99.50
17639;DHT22;8938;53.546;9.954;2023-09-19T10:01:00;22.10;99.30
17639;DHT22;8938;53.546;9.954;2023-09-19T10:03:35;22.40;99.40
17639;DHT22;8938;53.546;9.954;2023-09-19T10:06:07;22.60;98.60
17639;DHT22;8938;53.546;9.954;2023-09-19T10:09:05;22.60;98.30
17639;DHT22;8938;53.546;9.954;2023-09-19T10:11:46;22.60;97.60
17639;DHT22;8938;53.546;9.954;2023-09-19T10:14:16;22.60;97.10
17639;DHT22;8938;53.546;9.954;2023-09-19T10:16:48;22.60;96.90
17639;DHT22;8938;53.546;9.954;2023-09-19T10:19:30;22.70;97.00
17639;DHT22;8938;53.546;9.954;2023-09-19T10:22:00;22.60;96.20
17639;DHT22;8938;53.546;9.954;2023-09-19T10:24:28;22.50;96.60
17639;DHT22;8938;53.546;9.954;2023-09-19T10:26:55;22.40;96.50
17639;DHT22;8938;53.546;9.954;2023-09-19T10:29:21;22.40;96.90
17639;DHT22;8938;53.546;9.954;2023-09-19T10:31:47;22.40;96.90
17639;DHT22;8938;53.546;9.954;2023-09-19T10:34:17;22.40;96.70
17639;DHT22;8938;53.546;9.954;2023-09-19T10:36:46;22.40;96.80
17639;DHT22;8938;53.546;9.954;2023-09-19T10:39:15;22.10;96.70
17639;DHT22;8938;53.546;9.954;2023-09-19T10:41:55;21.90;96.90
17639;DHT22;8938;53.546;9.954;2023-09-19T10:44:24;21.90;97.30
17639;DHT22;8938;53.546;9.954;2023-09-19T10:46:54;22.10;97.00
17639;DHT22;8938;53.546;9.954;2023-09-19T10:49:20;22.20;97.10
17639;DHT22;8938;53.546;9.954;2023-09-19T10:51:48;22.20;96.80
17639;DHT22;8938;53.546;9.954;2023-09-19T10:54:17;22.10;96.90
17639;DHT22;8938;53.546;9.954;2023-09-19T10:56:48;21.80;96.60
17639;DHT22;8938;53.546;9.954;2023-09-19T10:59:17;21.80;97.10
17639;DHT22;8938;53.546;9.954;2023-09-19T11:01:53;21.70;97.00
17639;DHT22;8938;53.546;9.954;2023-09-19T11:04:33;21.80;97.00
17639;DHT22;8938;53.546;9.954;2023-09-19T11:09:44;22.10;97.20
17639;DHT22;8938;53.546;9.954;2023-09-19T11:12:12;22.10;97.00
17639;DHT22;8938;53.546;9.954;2023-09-19T11:14:39;22.10;97.10
17639;DHT22;8938;53.546;9.954;2023-09-19T11:20:16;22.10;96.80
17639;DHT22;8938;53.546;9.954;2023-09-19T11:30:52;22.10;96.00
17639;DHT22;8938;53.546;9.954;2023-09-19T11:36:09;22.20;96.10
17639;DHT22;8938;53.546;9.954;2023-09-19T11:43:51;21.90;96.10
17639;DHT22;8938;53.546;9.954;2023-09-19T11:46:18;22.00;96.20
17639;DHT22;8938;53.546;9.954;2023-09-19T11:48:48;22.00;96.00
17639;DHT22;8938;53.546;9.954;2023-09-19T11:51:19;22.10;96.40
17639;DHT22;8938;53.546;9.954;2023-09-19T11:53:48;22.10;96.10
17639;DHT22;8938;53.546;9.954;2023-09-19T11:56:18;22.20;95.90
17639;DHT22;8938;53.546;9.954;2023-09-19T11:58:44;22.20;96.20
17639;DHT22;8938;53.546;9.954;2023-09-19T12:01:13;22.30;96.20
17639;DHT22;8938;53.546;9.954;2023-09-19T12:03:42;22.20;96.00
17639;DHT22;8938;53.546;9.954;2023-09-19T12:06:16;22.20;96.20
17639;DHT22;8938;53.546;9.954;2023-09-19T12:08:42;22.30;96.10
17639;DHT22;8938;53.546;9.954;2023-09-19T12:11:13;22.20;96.10
17639;DHT22;8938;53.546;9.954;2023-09-19T12:13:47;22.40;95.80
17639;DHT22;8938;53.546;9.954;2023-09-19T12:16:15;22.30;95.60
17639;DHT22;8938;53.546;9.954;2023-09-19T12:18:41;22.30;95.40
17639;DHT22;8938;53.546;9.954;2023-09-19T12:21:30;22.20;95.50
17639;DHT22;8938;53.546;9.954;2023-09-19T12:26:44;22.20;95.60
17639;DHT22;8938;53.546;9.954;2023-09-19T12:29:19;22.20;95.80
17639;DHT22;8938;53.546;9.954;2023-09-19T12:31:53;22.20;95.80
17639;DHT22;8938;53.546;9.954;2023-09-19T12:34:30;22.40;95.90
17639;DHT22;8938;53.546;9.954;2023-09-19T12:37:10;22.40;95.80
17639;DHT22;8938;53.546;9.954;2023-09-19T12:40:04;22.50;95.80
17639;DHT22;8938;53.546;9.954;2023-09-19T12:42:44;22.90;95.40
17639;DHT22;8938;53.546;9.954;2023-09-19T12:45:11;23.00;94.90
17639;DHT22;8938;53.546;9.954;2023-09-19T12:47:39;23.00;94.90
17639;DHT22;8938;53.546;9.954;2023-09-19T12:50:10;23.10;95.00
17639;DHT22;8938;53.546;9.954;2023-09-19T12:52:46;22.90;95.10
17639;DHT22;8938;53.546;9.954;2023-09-19T12:55:27;22.90;95.10
17639;DHT22;8938;53.546;9.954;2023-09-19T13:00:34;22.90;95.00
17639;DHT22;8938;53.546;9.954;2023-09-19T13:06:08;22.90;94.60
17639;DHT22;8938;53.546;9.954;2023-09-19T13:08:39;23.00;94.00
17639;DHT22;8938;53.546;9.954;2023-09-19T13:11:14;23.10;93.80
17639;DHT22;8938;53.546;9.954;2023-09-19T13:13:50;23.00;93.60
17639;DHT22;8938;53.546;9.954;2023-09-19T13:16:21;22.90;94.00
17639;DHT22;8938;53.546;9.954;2023-09-19T13:18:49;22.90;94.20
17639;DHT22;8938;53.546;9.954;2023-09-19T13:21:28;22.90;94.30
17639;DHT22;8938;53.546;9.954;2023-09-19T13:23:55;23.10;94.20
17639;DHT22;8938;53.546;9.954;2023-09-19T13:26:27;23.20;93.60
17639;DHT22;8938;53.546;9.954;2023-09-19T13:28:56;23.10;93.50
17639;DHT22;8938;53.546;9.954;2023-09-19T13:31:21;23.20;93.70
17639;DHT22;8938;53.546;9.954;2023-09-19T13:33:48;23.10;93.70
17639;DHT22;8938;53.546;9.954;2023-09-19T13:36:15;23.30;93.80
17639;DHT22;8938;53.546;9.954;2023-09-19T13:38:41;23.40;93.80
17639;DHT22;8938;53.546;9.954;2023-09-19T13:41:10;23.50;93.80
17639;DHT22;8938;53.546;9.954;2023-09-19T13:43:36;23.40;93.20
17639;DHT22;8938;53.546;9.954;2023-09-19T13:46:04;23.60;93.70
17639;DHT22;8938;53.546;9.954;2023-09-19T13:48:29;23.70;93.70
17639;DHT22;8938;53.546;9.954;2023-09-19T13:50:55;23.60;92.80
17639;DHT22;8938;53.546;9.954;2023-09-19T13:53:22;23.60;93.20
17639;DHT22;8938;53.546;9.954;2023-09-19T13:55:47;23.50;92.80
17639;DHT22;8938;53.546;9.954;2023-09-19T13:58:14;23.50;93.00
17639;DHT22;8938;53.546;9.954;2023-09-19T14:00:40;23.50;92.90
17639;DHT22;8938;53.546;9.954;2023-09-19T14:03:05;23.60;93.00
17639;DHT22;8938;53.546;9.954;2023-09-19T14:05:31;23.50;92.70
17639;DHT22;8938;53.546;9.954;2023-09-19T14:07:57;23.40;92.90
17639;DHT22;8938;53.546;9.954;2023-09-19T14:10:24;23.30;92.80
17639;DHT22;8938;53.546;9.954;2023-09-19T14:12:52;23.40;92.90
17639;DHT22;8938;53.546;9.954;2023-09-19T14:15:18;23.40;92.90
17639;DHT22;8938;53.546;9.954;2023-09-19T14:17:43;23.60;93.40
17639;DHT22;8938;53.546;9.954;2023-09-19T14:20:12;23.60;93.30
17639;DHT22;8938;53.546;9.954;2023-09-19T14:22:37;23.50;93.20
17639;DHT22;8938;53.546;9.954;2023-09-19T14:25:04;23.50;93.20
17639;DHT22;8938;53.546;9.954;2023-09-19T14:27:30;23.40;93.20
17639;DHT22;8938;53.546;9.954;2023-09-19T14:29:55;23.40;93.40
17639;DHT22;8938;53.546;9.954;2023-09-19T14:32:23;23.40;93.40
17639;DHT22;8938;53.546;9.954;2023-09-19T14:34:48;23.40;93.60
17639;DHT22;8938;53.546;9.954;2023-09-19T14:37:14;23.40;93.40
17639;DHT22;8938;53.546;9.954;2023-09-19T14:39:41;23.20;93.40
17639;DHT22;8938;53.546;9.954;2023-09-19T14:42:11;23.10;93.60
17639;DHT22;8938;53.546;9.954;2023-09-19T14:44:37;23.10;93.90
17639;DHT22;8938;53.546;9.954;2023-09-19T14:47:03;23.10;94.00
17639;DHT22;8938;53.546;9.954;2023-09-19T14:49:36;23.10;93.90
17639;DHT22;8938;53.546;9.954;2023-09-19T14:52:08;23.00;94.30
17639;DHT22;8938;53.546;9.954;2023-09-19T14:54:33;23.00;94.30
17639;DHT22;8938;53.546;9.954;2023-09-19T14:57:00;23.00;94.60
17639;DHT22;8938;53.546;9.954;2023-09-19T14:59:36;23.00;94.60
17639;DHT22;8938;53.546;9.954;2023-09-19T15:02:05;23.00;94.80
17639;DHT22;8938;53.546;9.954;2023-09-19T15:04:31;23.00;95.10
17639;DHT22;8938;53.546;9.954;2023-09-19T15:06:57;23.00;95.20
17639;DHT22;8938;53.546;9.954;2023-09-19T15:09:23;23.00;95.20
17639;DHT22;8938;53.546;9.954;2023-09-19T15:11:52;23.00;95.20
17639;DHT22;8938;53.546;9.954;2023-09-19T15:14:19;22.90;95.20
17639;DHT22;8938;53.546;9.954;2023-09-19T15:16:44;22.90;95.30
17639;DHT22;8938;53.546;9.954;2023-09-19T15:19:10;22.90;95.30
17639;DHT22;8938;53.546;9.954;2023-09-19T15:21:36;22.80;95.50
17639;DHT22;8938;53.546;9.954;2023-09-19T15:24:05;22.80;95.70
17639;DHT22;8938;53.546;9.954;2023-09-19T15:26:34;22.80;95.70
17639;DHT22;8938;53.546;9.954;2023-09-19T15:29:07;22.70;95.50
17639;DHT22;8938;53.546;9.954;2023-09-19T15:31:32;22.70;95.70
17639;DHT22;8938;53.546;9.954;2023-09-19T15:33:58;22.70;95.70
17639;DHT22;8938;53.546;9.954;2023-09-19T15:36:24;22.70;95.80
17639;DHT22;8938;53.546;9.954;2023-09-19T15:41:26;22.70;96.00
17639;DHT22;8938;53.546;9.954;2023-09-19T15:43:52;22.80;96.00
17639;DHT22;8938;53.546;9.954;2023-09-19T15:46:19;22.90;96.00
17639;DHT22;8938;53.546;9.954;2023-09-19T15:48:45;22.80;96.00
17639;DHT22;8938;53.546;9.954;2023-09-19T15:51:11;22.90;96.00
17639;DHT22;8938;53.546;9.954;2023-09-19T15:53:51;22.70;96.00
17639;DHT22;8938;53.546;9.954;2023-09-19T15:56:18;22.70;96.20
17639;DHT22;8938;53.546;9.954;2023-09-19T15:58:51;22.80;96.20
17639;DHT22;8938;53.546;9.954;2023-09-19T16:01:19;22.80;96.00
17639;DHT22;8938;53.546;9.954;2023-09-19T16:03:49;22.80;96.10
17639;DHT22;8938;53.546;9.954;2023-09-19T16:06:18;22.70;95.80
17639;DHT22;8938;53.546;9.954;2023-09-19T16:08:45;22.60;96.00
17639;DHT22;8938;53.546;9.954;2023-09-19T16:11:12;22.50;95.90
17639;DHT22;8938;53.546;9.954;2023-09-19T16:13:38;22.50;96.10
17639;DHT22;8938;53.546;9.954;2023-09-19T16:16:04;22.50;95.90
17639;DHT22;8938;53.546;9.954;2023-09-19T16:18:30;22.40;96.10
17639;DHT22;8938;53.546;9.954;2023-09-19T16:21:06;22.40;96.30
17639;DHT22;8938;53.546;9.954;2023-09-19T16:23:34;22.40;96.40
17639;DHT22;8938;53.546;9.954;2023-09-19T16:26:05;22.40;96.40
17639;DHT22;8938;53.546;9.954;2023-09-19T16:28:32;22.50;96.60
17639;DHT22;8938;53.546;9.954;2023-09-19T16:31:02;22.40;96.40
17639;DHT22;8938;53.546;9.954;2023-09-19T16:33:33;22.50;96.20
17639;DHT22;8938;53.546;9.954;2023-09-19T16:35:59;22.50;96.30
17639;DHT22;8938;53.546;9.954;2023-09-19T16:38:26;22.40;96.30
17639;DHT22;8938;53.546;9.954;2023-09-19T16:40:57;22.50;96.40
17639;DHT22;8938;53.546;9.954;2023-09-19T16:43:26;22.50;96.30